createdAt,value
2022-10-07T00:01:58.507Z,87.49
2022-10-07T00:04:25.122Z,87.63
2022-10-07T00:06:51.639Z,88.32
2022-10-07T00:09:18.184Z,88.91
2022-10-07T00:11:44.716Z,88.16
2022-10-07T00:14:11.653Z,89.29
2022-10-07T00:16:40.863Z,87.81
2022-10-07T00:19:12.083Z,88.47
2022-10-07T00:21:39.901Z,87.78
2022-10-07T00:24:07.664Z,87.14
2022-10-07T00:26:36.043Z,87.76
2022-10-07T00:29:04.138Z,87.78
2022-10-07T00:31:33.826Z,88.57
2022-10-07T00:34:00.629Z,88.74
2022-10-07T00:36:32.776Z,89.12
2022-10-07T00:39:01.718Z,88.72
2022-10-07T00:41:37.560Z,88.92
2022-10-07T00:44:31.841Z,88.58
2022-10-07T00:47:00.652Z,87.70
2022-10-07T00:49:30.148Z,87.69
2022-10-07T00:51:57.996Z,87.46
2022-10-07T00:54:24.859Z,86.97
2022-10-07T00:56:52.013Z,87.66
2022-10-07T00:59:20.979Z,88.08
2022-10-07T01:01:47.442Z,87.42
2022-10-07T01:04:15.171Z,87.33
2022-10-07T01:06:41.851Z,87.53
2022-10-07T01:09:11.238Z,87.69
2022-10-07T01:11:56.577Z,87.68
2022-10-07T01:14:47.854Z,87.22
2022-10-07T01:17:31.645Z,86.86
2022-10-07T01:20:16.481Z,86.45
2022-10-07T01:22:49.963Z,86.51
2022-10-07T01:25:22.301Z,85.71
2022-10-07T01:27:56.341Z,85.69
2022-10-07T01:30:22.821Z,86.05
2022-10-07T01:32:56.680Z,85.97
2022-10-07T01:35:26.900Z,86.02
2022-10-07T01:37:57.339Z,85.74
2022-10-07T01:40:28.262Z,85.96
2022-10-07T01:42:55.582Z,86.10
2022-10-07T01:45:24.990Z,86.09
2022-10-07T01:47:52.036Z,86.80
2022-10-07T01:50:22.235Z,87.88
2022-10-07T01:52:51.367Z,87.48
2022-10-07T01:55:41.972Z,87.26
2022-10-07T01:58:45.974Z,86.98
2022-10-07T02:01:17.427Z,87.13
2022-10-07T02:04:08.646Z,87.51
2022-10-07T02:06:46.844Z,88.68
2022-10-07T02:09:35.850Z,89.77
2022-10-07T02:12:15.580Z,90.50
2022-10-07T02:15:34.668Z,92.33
2022-10-07T02:18:06.470Z,92.66
2022-10-07T02:20:37.024Z,91.86
2022-10-07T02:23:07.760Z,92.67
2022-10-07T02:25:40.136Z,92.83
2022-10-07T02:28:09.490Z,92.41
2022-10-07T02:30:37.648Z,92.76
2022-10-07T02:33:07.760Z,92.96
2022-10-07T02:35:45.194Z,93.62
2022-10-07T02:38:14.877Z,93.63
2022-10-07T02:40:54.640Z,94.06
2022-10-07T02:43:31.318Z,94.85
2022-10-07T02:46:04.270Z,93.71
2022-10-07T02:48:34.458Z,92.86
2022-10-07T02:51:05.008Z,93.32
2022-10-07T02:53:33.261Z,93.24
2022-10-07T02:56:02.259Z,93.52
2022-10-07T02:58:29.319Z,93.33
2022-10-07T03:00:59.465Z,93.31
2022-10-07T03:03:26.998Z,93.89
2022-10-07T03:05:53.753Z,93.47
2022-10-07T03:08:21.878Z,93.57
2022-10-07T03:10:48.766Z,93.63
2022-10-07T03:13:15.679Z,93.42
2022-10-07T03:15:43.134Z,91.87
2022-10-07T03:18:26.277Z,90.22
2022-10-07T03:20:55.286Z,89.79
2022-10-07T03:23:23.518Z,89.87
2022-10-07T03:25:55.334Z,90.21
2022-10-07T03:28:23.820Z,90.98
2022-10-07T03:30:51.500Z,92.25
2022-10-07T03:33:19.901Z,92.42
2022-10-07T03:35:46.332Z,92.46
2022-10-07T03:38:13.002Z,92.98
2022-10-07T03:40:39.976Z,93.34
2022-10-07T03:43:07.574Z,93.48
2022-10-07T03:45:37.448Z,93.85
2022-10-07T03:48:04.157Z,93.74
2022-10-07T03:50:30.556Z,92.81
2022-10-07T03:52:56.977Z,93.21
2022-10-07T03:55:23.407Z,94.06
2022-10-07T03:57:59.665Z,93.66
2022-10-07T04:00:27.382Z,92.36
2022-10-07T04:02:54.166Z,92.50
2022-10-07T04:05:21.788Z,91.98
2022-10-07T04:07:50.097Z,92.00
2022-10-07T04:10:18.608Z,92.62
2022-10-07T04:12:45.978Z,90.60
2022-10-07T04:15:13.667Z,90.71
2022-10-07T04:17:41.234Z,92.18
2022-10-07T04:20:08.536Z,92.23
2022-10-07T04:22:35.174Z,90.83
2022-10-07T04:25:19.936Z,90.73
2022-10-07T04:27:54.091Z,89.96
2022-10-07T04:30:21.769Z,89.23
2022-10-07T04:32:50.553Z,91.36
2022-10-07T04:35:18.957Z,91.18
2022-10-07T04:37:48.355Z,91.32
2022-10-07T04:40:15.420Z,91.08
2022-10-07T04:43:00.443Z,89.92
2022-10-07T04:45:27.129Z,91.26
2022-10-07T04:47:53.576Z,91.84
2022-10-07T04:50:19.980Z,92.62
2022-10-07T04:52:52.591Z,92.67
2022-10-07T04:55:19.287Z,93.29
2022-10-07T04:57:45.993Z,93.42
2022-10-07T05:00:13.287Z,94.46
2022-10-07T05:02:40.019Z,94.35
2022-10-07T05:05:06.986Z,94.38
2022-10-07T05:07:33.459Z,91.41
2022-10-07T05:09:59.929Z,90.80
2022-10-07T05:12:26.647Z,91.39
2022-10-07T05:14:53.101Z,89.96
2022-10-07T05:17:20.364Z,88.64
2022-10-07T05:19:47.026Z,88.66
2022-10-07T05:22:13.570Z,87.99
2022-10-07T05:24:40.010Z,87.87
2022-10-07T05:27:06.465Z,89.08
2022-10-07T05:29:32.881Z,90.37
2022-10-07T05:32:03.892Z,90.42
2022-10-07T05:34:31.590Z,90.79
2022-10-07T05:36:59.190Z,90.88
2022-10-07T05:39:25.730Z,92.36
2022-10-07T05:41:52.253Z,92.29
2022-10-07T05:44:18.723Z,93.97
2022-10-07T05:46:45.169Z,94.43
2022-10-07T05:49:12.169Z,94.42
2022-10-07T05:51:38.608Z,94.47
2022-10-07T05:54:05.157Z,93.60
2022-10-07T05:56:32.308Z,93.41
2022-10-07T05:58:58.826Z,94.00
2022-10-07T06:01:27.679Z,93.75
2022-10-07T06:03:57.221Z,93.76
2022-10-07T06:06:25.053Z,93.97
2022-10-07T06:08:52.783Z,94.08
2022-10-07T06:11:38.409Z,95.99
2022-10-07T06:14:05.282Z,93.82
2022-10-07T06:16:31.843Z,93.20
2022-10-07T06:18:59.789Z,92.79
2022-10-07T06:21:28.025Z,93.11
2022-10-07T06:23:56.517Z,92.95
2022-10-07T06:26:23.577Z,93.27
2022-10-07T06:28:50.183Z,93.71
2022-10-07T06:31:25.140Z,92.92
2022-10-07T06:33:52.299Z,92.24
2022-10-07T06:36:19.325Z,92.57
2022-10-07T06:38:47.287Z,91.79
2022-10-07T06:41:14.202Z,89.64
2022-10-07T06:43:40.960Z,88.67
2022-10-07T06:46:10.861Z,87.36
2022-10-07T06:48:40.995Z,86.21
2022-10-07T06:51:12.579Z,85.62
2022-10-07T06:53:39.018Z,84.89
2022-10-07T06:56:06.103Z,84.24
2022-10-07T06:58:33.172Z,83.03
2022-10-07T07:01:00.675Z,82.15
2022-10-07T07:03:28.020Z,80.59
2022-10-07T07:05:55.226Z,80.45
2022-10-07T07:08:23.457Z,80.31
2022-10-07T07:10:50.024Z,79.57
2022-10-07T07:13:16.577Z,78.14
2022-10-07T07:15:43.050Z,76.54
2022-10-07T07:18:11.423Z,75.31
2022-10-07T07:20:38.857Z,74.15
2022-10-07T07:23:07.509Z,73.25
2022-10-07T07:25:39.038Z,72.29
2022-10-07T07:28:07.379Z,72.12
2022-10-07T07:30:34.905Z,71.43
2022-10-07T07:33:01.661Z,70.39
2022-10-07T07:35:31.027Z,68.94
2022-10-07T07:37:57.572Z,67.62
2022-10-07T07:40:24.066Z,67.44
2022-10-07T07:42:50.520Z,66.87
2022-10-07T07:45:18.059Z,64.95
2022-10-07T07:47:47.477Z,64.72
2022-10-07T07:50:14.243Z,64.09
2022-10-07T07:52:40.678Z,62.64
2022-10-07T07:55:07.503Z,62.93
2022-10-07T07:57:33.959Z,62.10
2022-10-07T08:00:00.560Z,60.35
2022-10-07T08:02:27.142Z,60.17
2022-10-07T08:04:53.967Z,59.00
2022-10-07T08:07:20.460Z,58.59
2022-10-07T08:09:46.962Z,58.39
2022-10-07T08:12:14.717Z,55.96
2022-10-07T08:14:41.453Z,54.50
2022-10-07T08:17:07.893Z,54.22
2022-10-07T08:19:34.360Z,52.67
2022-10-07T08:22:01.098Z,52.73
2022-10-07T08:24:27.950Z,52.66
2022-10-07T08:26:54.569Z,51.58
2022-10-07T08:29:21.736Z,51.57
2022-10-07T08:31:49.291Z,49.32
2022-10-07T08:34:15.715Z,48.24
2022-10-07T08:36:47.232Z,48.47
2022-10-07T08:39:15.165Z,49.33
2022-10-07T08:42:03.498Z,48.95
2022-10-07T08:44:33.055Z,47.79
2022-10-07T08:47:18.030Z,45.88
2022-10-07T08:49:56.624Z,45.14
2022-10-07T08:52:32.846Z,44.30
2022-10-07T08:55:01.579Z,44.51
2022-10-07T08:58:04.023Z,43.27
2022-10-07T09:00:40.857Z,43.20
2022-10-07T09:03:25.248Z,42.27
2022-10-07T09:05:53.347Z,41.36
2022-10-07T09:08:29.854Z,41.57
2022-10-07T09:11:15.751Z,40.94
2022-10-07T09:13:52.593Z,40.05
2022-10-07T09:16:27.184Z,41.44
2022-10-07T09:18:57.690Z,41.24
2022-10-07T09:21:32.915Z,40.59
2022-10-07T09:24:22.880Z,40.03
2022-10-07T09:26:49.509Z,39.84
2022-10-07T09:29:20.660Z,39.89
2022-10-07T09:31:49.308Z,39.29
2022-10-07T09:34:22.459Z,40.13
2022-10-07T09:37:12.266Z,39.77
2022-10-07T09:39:39.723Z,41.91
2022-10-07T09:42:31.586Z,41.14
2022-10-07T09:45:01.522Z,39.26
2022-10-07T09:47:36.641Z,39.04
2022-10-07T09:50:03.971Z,39.46
2022-10-07T09:52:32.558Z,39.56
2022-10-07T09:55:31.611Z,38.75
2022-10-07T09:58:03.099Z,38.30
2022-10-07T10:00:30.621Z,38.75
2022-10-07T10:03:05.510Z,38.32
2022-10-07T10:05:35.587Z,38.04
2022-10-07T10:08:04.419Z,39.89
2022-10-07T10:10:35.609Z,39.39
2022-10-07T10:13:05.477Z,39.02
2022-10-07T10:15:44.865Z,39.11
2022-10-07T10:18:41.577Z,37.94
2022-10-07T10:21:14.431Z,38.18
2022-10-07T10:23:46.803Z,38.52
2022-10-07T10:26:33.718Z,37.89
2022-10-07T10:29:31.641Z,39.48
2022-10-07T10:32:01.035Z,39.41
2022-10-07T10:34:52.586Z,38.55
2022-10-07T10:37:30.735Z,37.46
2022-10-07T10:40:07.971Z,36.93
2022-10-07T10:42:45.544Z,35.88
2022-10-07T10:45:19.949Z,38.27
2022-10-07T10:48:00.776Z,37.83
2022-10-07T10:51:02.920Z,36.48
2022-10-07T10:53:34.412Z,36.19
2022-10-07T10:56:00.828Z,35.13
2022-10-07T10:58:44.699Z,34.69
2022-10-07T11:01:28.780Z,34.51
2022-10-07T11:04:09.749Z,35.81
2022-10-07T11:06:38.990Z,34.91
2022-10-07T11:09:10.272Z,34.85
2022-10-07T11:11:36.796Z,35.31
2022-10-07T11:14:14.299Z,35.64
2022-10-07T11:16:52.546Z,34.95
2022-10-07T11:19:24.574Z,33.68
2022-10-07T11:21:53.492Z,33.42
2022-10-07T11:24:26.612Z,34.41
2022-10-07T11:27:06.592Z,33.53
2022-10-07T11:30:03.392Z,35.25
2022-10-07T11:32:58.917Z,39.35
2022-10-07T11:35:35.927Z,40.05
2022-10-07T11:38:12.983Z,38.18
2022-10-07T11:40:53.254Z,36.26
2022-10-07T11:43:29.130Z,35.03
2022-10-07T11:46:01.000Z,35.50
2022-10-07T11:48:37.584Z,34.24
2022-10-07T11:51:07.188Z,34.23
2022-10-07T11:53:38.458Z,35.26
2022-10-07T11:56:18.645Z,35.53
2022-10-07T11:58:45.591Z,35.58
2022-10-07T12:01:28.799Z,37.16
2022-10-07T12:04:35.379Z,36.29
2022-10-07T12:07:36.234Z,36.62
2022-10-07T12:10:03.396Z,37.54
2022-10-07T12:12:42.518Z,37.84
2022-10-07T12:15:42.449Z,37.79
2022-10-07T12:18:10.451Z,38.27
2022-10-07T12:20:46.440Z,38.42
2022-10-07T12:23:18.871Z,37.45
2022-10-07T12:25:47.992Z,36.67
2022-10-07T12:28:25.410Z,37.27
2022-10-07T12:30:57.213Z,36.22
2022-10-07T12:33:46.469Z,37.52
2022-10-07T12:36:18.969Z,36.85
2022-10-07T12:39:07.965Z,36.94
2022-10-07T12:41:39.714Z,37.19
2022-10-07T12:44:31.590Z,36.55
2022-10-07T12:47:13.776Z,36.41
2022-10-07T12:49:51.840Z,37.87
2022-10-07T12:52:27.313Z,37.58
2022-10-07T12:55:07.487Z,37.31
2022-10-07T12:57:36.763Z,36.95
2022-10-07T13:00:08.452Z,38.22
2022-10-07T13:02:53.671Z,38.17
2022-10-07T13:05:50.878Z,37.26
2022-10-07T13:08:23.267Z,37.55
2022-10-07T13:10:56.162Z,37.94
2022-10-07T13:13:41.441Z,39.00
2022-10-07T13:16:19.610Z,38.56
2022-10-07T13:18:53.606Z,38.49
2022-10-07T13:21:27.309Z,39.76
2022-10-07T13:23:55.943Z,39.91
2022-10-07T13:26:25.024Z,38.69
2022-10-07T13:28:56.803Z,40.07
2022-10-07T13:31:26.250Z,40.51
2022-10-07T13:33:55.813Z,40.13
2022-10-07T13:36:22.189Z,40.71
2022-10-07T13:38:54.621Z,40.07
2022-10-07T13:41:27.381Z,40.36
2022-10-07T13:44:02.194Z,40.82
2022-10-07T13:46:31.330Z,40.89
2022-10-07T13:48:59.252Z,40.77
2022-10-07T13:51:36.929Z,41.08
2022-10-07T13:54:06.254Z,41.91
2022-10-07T13:56:42.694Z,42.28
2022-10-07T13:59:15.946Z,43.39
2022-10-07T14:01:42.610Z,44.07
2022-10-07T14:04:14.906Z,43.01
2022-10-07T14:07:09.014Z,42.90
2022-10-07T14:09:47.688Z,42.20
2022-10-07T14:12:18.545Z,41.49
2022-10-07T14:14:52.164Z,42.15
2022-10-07T14:17:38.913Z,43.59
2022-10-07T14:20:15.799Z,43.67
2022-10-07T14:22:46.852Z,44.75
2022-10-07T14:25:22.960Z,44.79
2022-10-07T14:27:49.331Z,46.60
2022-10-07T14:30:25.988Z,45.81
2022-10-07T14:33:32.633Z,45.21
2022-10-07T14:36:28.143Z,46.00
2022-10-07T14:39:01.836Z,47.28
2022-10-07T14:41:29.700Z,45.96
2022-10-07T14:44:00.235Z,47.02
2022-10-07T14:46:29.070Z,47.30
2022-10-07T14:48:55.743Z,47.36
2022-10-07T14:51:27.629Z,47.35
2022-10-07T14:53:58.437Z,48.21
2022-10-07T14:56:31.283Z,48.48
2022-10-07T14:58:58.025Z,50.98
2022-10-07T15:01:26.662Z,51.18
2022-10-07T15:03:53.310Z,50.90
2022-10-07T15:06:20.547Z,53.77
2022-10-07T15:08:48.650Z,51.60
2022-10-07T15:11:20.872Z,51.60
2022-10-07T15:13:49.324Z,50.33
2022-10-07T15:16:19.596Z,51.91
2022-10-07T15:18:51.870Z,50.79
2022-10-07T15:21:19.842Z,52.58
2022-10-07T15:23:53.525Z,52.29
2022-10-07T15:26:23.599Z,54.54
2022-10-07T15:28:56.138Z,53.59
2022-10-07T15:31:27.629Z,54.53
2022-10-07T15:33:57.193Z,57.22
2022-10-07T15:36:29.067Z,57.29
2022-10-07T15:38:59.023Z,55.64
2022-10-07T15:41:36.821Z,54.25
2022-10-07T15:44:06.544Z,53.73
2022-10-07T15:46:34.010Z,56.32
2022-10-07T15:49:00.628Z,55.83
2022-10-07T15:51:27.584Z,54.87
2022-10-07T15:53:54.118Z,57.08
2022-10-07T15:56:20.946Z,57.38
2022-10-07T15:58:47.846Z,58.68
2022-10-07T16:01:15.332Z,58.76
2022-10-07T16:03:46.097Z,58.97
2022-10-07T16:06:17.473Z,60.26
2022-10-07T16:08:44.563Z,61.34
2022-10-07T16:11:12.428Z,58.82
2022-10-07T16:13:44.658Z,59.34
2022-10-07T16:16:31.456Z,60.76
2022-10-07T16:18:59.357Z,61.26
2022-10-07T16:21:37.261Z,60.23
2022-10-07T16:24:18.912Z,60.99
2022-10-07T16:26:47.212Z,62.12
2022-10-07T16:29:34.563Z,63.64
2022-10-07T16:32:01.427Z,62.35
2022-10-07T16:34:28.693Z,61.96
2022-10-07T16:36:56.860Z,61.41
2022-10-07T16:39:24.064Z,61.71
2022-10-07T16:41:52.242Z,63.25
2022-10-07T16:44:19.556Z,63.54
2022-10-07T16:46:46.526Z,62.51
2022-10-07T16:49:15.835Z,63.46
2022-10-07T16:51:43.974Z,63.97
2022-10-07T16:54:14.459Z,64.89
2022-10-07T16:56:46.156Z,64.71
2022-10-07T16:59:17.460Z,64.91
2022-10-07T17:01:49.173Z,65.53
2022-10-07T17:04:16.138Z,65.49
2022-10-07T17:06:43.789Z,66.69
2022-10-07T17:09:10.379Z,67.23
2022-10-07T17:11:37.271Z,67.35
2022-10-07T17:14:19.116Z,67.94
2022-10-07T17:16:50.865Z,68.32
2022-10-07T17:19:22.707Z,68.95
2022-10-07T17:21:50.891Z,70.03
2022-10-07T17:24:19.078Z,69.27
2022-10-07T17:26:46.393Z,71.34
2022-10-07T17:29:15.277Z,71.60
2022-10-07T17:31:43.475Z,72.01
2022-10-07T17:34:11.348Z,72.72
2022-10-07T17:36:38.527Z,72.48
2022-10-07T17:39:05.655Z,72.98
2022-10-07T17:41:34.518Z,73.25
2022-10-07T17:44:03.200Z,74.23
2022-10-07T17:46:33.157Z,74.52
2022-10-07T17:49:02.151Z,74.81
2022-10-07T17:51:31.191Z,75.20
2022-10-07T17:54:00.265Z,74.77
2022-10-07T17:56:28.255Z,75.16
2022-10-07T17:58:55.349Z,75.23
2022-10-07T18:01:34.053Z,74.37
2022-10-07T18:04:03.327Z,74.62
2022-10-07T18:06:33.585Z,73.39
2022-10-07T18:09:03.292Z,75.22
2022-10-07T18:11:49.603Z,75.04
2022-10-07T18:14:34.691Z,74.82
2022-10-07T18:17:01.307Z,75.63
2022-10-07T18:19:29.634Z,76.05
2022-10-07T18:21:56.716Z,77.20
2022-10-07T18:24:27.659Z,76.89
2022-10-07T18:26:59.175Z,76.61
2022-10-07T18:29:30.828Z,76.20
2022-10-07T18:31:57.509Z,76.01
2022-10-07T18:34:24.089Z,77.36
2022-10-07T18:36:55.407Z,78.78
2022-10-07T18:39:23.230Z,78.52
2022-10-07T18:41:49.768Z,79.41
2022-10-07T18:44:16.473Z,77.89
2022-10-07T18:46:42.951Z,77.48
2022-10-07T18:49:09.480Z,76.96
2022-10-07T18:51:35.974Z,77.80
2022-10-07T18:54:02.399Z,79.91
2022-10-07T18:56:30.729Z,80.36
2022-10-07T18:58:58.138Z,81.27
2022-10-07T19:01:27.910Z,83.09
2022-10-07T19:04:01.120Z,83.38
2022-10-07T19:06:29.565Z,84.30
2022-10-07T19:08:57.649Z,85.18
2022-10-07T19:11:24.573Z,84.06
2022-10-07T19:13:56.268Z,83.71
2022-10-07T19:16:24.916Z,83.54
2022-10-07T19:18:54.463Z,82.85
2022-10-07T19:21:21.783Z,83.12
2022-10-07T19:23:49.466Z,83.70
2022-10-07T19:26:21.398Z,83.91
2022-10-07T19:28:49.851Z,84.46
2022-10-07T19:31:32.110Z,85.34
2022-10-07T19:34:07.918Z,85.95
2022-10-07T19:36:38.018Z,85.60
2022-10-07T19:39:05.931Z,85.98
2022-10-07T19:41:34.168Z,85.49
2022-10-07T19:44:01.220Z,86.70
2022-10-07T19:46:30.623Z,84.98
2022-10-07T19:48:58.895Z,85.30
2022-10-07T19:51:27.292Z,84.90
2022-10-07T19:53:54.046Z,85.80
2022-10-07T19:56:23.164Z,85.19
2022-10-07T19:58:52.044Z,85.32
2022-10-07T20:01:21.207Z,84.89
2022-10-07T20:03:48.929Z,85.54
2022-10-07T20:06:16.139Z,85.35
2022-10-07T20:08:44.504Z,85.32
2022-10-07T20:11:11.888Z,85.39
2022-10-07T20:13:38.900Z,84.22
2022-10-07T20:16:06.874Z,84.01
2022-10-07T20:18:34.909Z,84.41
2022-10-07T20:21:08.630Z,84.41
2022-10-07T20:23:36.268Z,83.99
2022-10-07T20:26:10.465Z,84.60
2022-10-07T20:28:39.570Z,84.90
2022-10-07T20:31:08.988Z,87.20
2022-10-07T20:33:40.417Z,86.46
2022-10-07T20:36:08.325Z,86.78
2022-10-07T20:38:54.036Z,87.07
2022-10-07T20:41:40.369Z,86.96
2022-10-07T20:44:07.442Z,86.54
2022-10-07T20:46:37.112Z,86.81
2022-10-07T20:49:21.230Z,86.42
2022-10-07T20:51:54.313Z,86.19
2022-10-07T20:54:21.814Z,86.97
2022-10-07T20:56:51.965Z,89.26
2022-10-07T20:59:18.791Z,89.31
2022-10-07T21:01:45.377Z,88.97
2022-10-07T21:04:14.136Z,88.24
2022-10-07T21:06:40.752Z,87.47
2022-10-07T21:09:07.388Z,88.98
2022-10-07T21:11:34.487Z,88.19
2022-10-07T21:14:00.903Z,87.81
2022-10-07T21:16:29.210Z,89.06
2022-10-07T21:18:56.774Z,88.69
2022-10-07T21:21:25.397Z,88.34
2022-10-07T21:23:52.823Z,88.45
2022-10-07T21:26:20.020Z,87.04
2022-10-07T21:28:49.606Z,87.70
2022-10-07T21:31:19.119Z,89.63
2022-10-07T21:33:49.174Z,89.71
2022-10-07T21:36:21.575Z,89.29
2022-10-07T21:38:53.589Z,88.86
2022-10-07T21:41:25.308Z,89.62
2022-10-07T21:43:54.443Z,88.76
2022-10-07T21:46:22.093Z,88.78
2022-10-07T21:48:49.114Z,88.72
2022-10-07T21:51:16.185Z,87.99
2022-10-07T21:53:42.593Z,87.81
2022-10-07T21:56:12.557Z,88.18
2022-10-07T21:58:39.403Z,88.17
2022-10-07T22:01:13.170Z,87.64
2022-10-07T22:03:40.880Z,87.67
2022-10-07T22:06:10.721Z,88.37
2022-10-07T22:08:38.420Z,89.86
2022-10-07T22:11:19.068Z,88.92
2022-10-07T22:14:00.046Z,90.23
2022-10-07T22:16:26.778Z,89.73
2022-10-07T22:18:54.516Z,89.65
2022-10-07T22:21:22.293Z,90.77
2022-10-07T22:23:51.116Z,90.68
2022-10-07T22:26:18.999Z,91.39
2022-10-07T22:28:49.710Z,91.34
2022-10-07T22:31:16.909Z,91.84
2022-10-07T22:33:45.002Z,91.43
2022-10-07T22:36:13.342Z,89.72
2022-10-07T22:38:43.514Z,90.72
2022-10-07T22:41:15.414Z,90.46
2022-10-07T22:43:46.245Z,90.81
2022-10-07T22:46:15.504Z,91.40
2022-10-07T22:48:43.470Z,91.60
2022-10-07T22:51:12.297Z,90.42
2022-10-07T22:53:41.183Z,90.76
2022-10-07T22:56:13.040Z,90.72
2022-10-07T22:58:41.904Z,90.87
2022-10-07T23:01:11.477Z,90.65
2022-10-07T23:03:39.810Z,90.12
2022-10-07T23:06:07.421Z,90.35
2022-10-07T23:08:35.062Z,90.22
2022-10-07T23:11:03.132Z,90.23
2022-10-07T23:13:33.008Z,90.36
2022-10-07T23:16:01.667Z,90.31
2022-10-07T23:18:29.489Z,90.99
2022-10-07T23:21:03.177Z,91.39
2022-10-07T23:23:30.514Z,91.98
2022-10-07T23:25:56.934Z,92.26
2022-10-07T23:28:25.724Z,93.29
2022-10-07T23:30:53.084Z,93.73
2022-10-07T23:33:20.183Z,93.55
2022-10-07T23:35:46.640Z,93.24
2022-10-07T23:38:13.100Z,92.60
2022-10-07T23:40:40.702Z,91.95
2022-10-07T23:43:07.721Z,93.57
2022-10-07T23:45:34.165Z,94.41
2022-10-07T23:48:00.618Z,93.49
2022-10-07T23:50:27.754Z,93.38
2022-10-07T23:52:54.267Z,93.66
2022-10-07T23:55:20.778Z,94.35
2022-10-07T23:57:47.197Z,95.54
